createdAt,value
2018-04-12T00:01:39.248Z,99.90
2018-04-12T00:04:05.449Z,99.90
2018-04-12T00:06:31.630Z,99.90
2018-04-12T00:08:57.831Z,99.90
2018-04-12T00:11:24.086Z,99.90
2018-04-12T00:13:50.977Z,99.90
2018-04-12T00:16:17.149Z,99.90
2018-04-12T00:18:43.365Z,99.90
2018-04-12T00:21:09.547Z,99.90
2018-04-12T00:23:35.789Z,99.90
2018-04-12T00:26:01.991Z,99.90
2018-04-12T00:28:28.222Z,99.90
2018-04-12T00:30:54.394Z,99.90
2018-04-12T00:33:20.581Z,99.90
2018-04-12T00:35:46.745Z,99.90
2018-04-12T00:38:12.947Z,99.90
2018-04-12T00:40:39.168Z,99.90
2018-04-12T00:43:05.375Z,99.90
2018-04-12T00:45:32.273Z,99.90
2018-04-12T00:47:58.448Z,99.90
2018-04-12T00:50:25.365Z,99.90
2018-04-12T00:52:51.566Z,99.90
2018-04-12T00:55:17.741Z,99.90
2018-04-12T00:57:44.726Z,99.90
2018-04-12T01:00:10.997Z,99.90
2018-04-12T01:02:37.170Z,99.90
2018-04-12T01:05:03.364Z,99.90
2018-04-12T01:07:29.520Z,99.90
2018-04-12T01:09:55.692Z,99.90
2018-04-12T01:12:21.922Z,99.90
2018-04-12T01:14:48.138Z,99.90
2018-04-12T01:17:14.291Z,99.90
2018-04-12T01:19:40.472Z,99.90
2018-04-12T01:22:06.699Z,99.90
2018-04-12T01:24:32.884Z,99.90
2018-04-12T01:26:59.074Z,99.90
2018-04-12T01:29:25.240Z,99.90
2018-04-12T01:31:51.446Z,99.90
2018-04-12T01:34:17.567Z,99.90
2018-04-12T01:36:43.793Z,99.90
2018-04-12T01:39:09.994Z,99.90
2018-04-12T01:41:36.149Z,99.90
2018-04-12T01:44:02.404Z,99.90
2018-04-12T01:46:29.360Z,99.90
2018-04-12T01:48:56.284Z,99.90
2018-04-12T01:51:22.502Z,99.90
2018-04-12T01:53:48.675Z,99.90
2018-04-12T01:56:15.599Z,99.90
2018-04-12T01:58:42.551Z,99.90
2018-04-12T02:01:09.533Z,99.90
2018-04-12T02:03:35.720Z,99.90
2018-04-12T02:06:02.628Z,99.90
2018-04-12T02:08:28.813Z,99.90
2018-04-12T02:10:54.992Z,99.90
2018-04-12T02:13:21.228Z,99.90
2018-04-12T02:15:47.457Z,99.90
2018-04-12T02:18:13.632Z,99.90
2018-04-12T02:20:39.817Z,99.90
2018-04-12T02:23:06.053Z,99.90
2018-04-12T02:25:32.941Z,99.90
2018-04-12T02:27:59.165Z,99.90
2018-04-12T02:30:25.388Z,99.90
2018-04-12T02:32:51.570Z,99.90
2018-04-12T02:35:17.800Z,99.90
2018-04-12T02:37:44.760Z,99.90
2018-04-12T02:40:11.755Z,99.90
2018-04-12T02:42:37.976Z,99.90
2018-04-12T02:45:04.173Z,99.90
2018-04-12T02:47:31.113Z,99.90
2018-04-12T02:49:58.095Z,99.90
2018-04-12T02:52:24.234Z,99.90
2018-04-12T02:54:50.439Z,99.90
2018-04-12T02:57:16.577Z,99.90
2018-04-12T02:59:42.807Z,99.90
2018-04-12T03:02:08.970Z,99.90
2018-04-12T03:04:35.193Z,99.90
2018-04-12T03:07:01.400Z,99.90
2018-04-12T03:09:27.543Z,99.90
2018-04-12T03:11:53.753Z,99.90
2018-04-12T03:14:19.962Z,99.90
2018-04-12T03:16:46.146Z,99.90
2018-04-12T03:19:12.291Z,99.90
2018-04-12T03:21:39.217Z,99.90
2018-04-12T03:24:05.354Z,99.90
2018-04-12T03:26:32.297Z,99.90
2018-04-12T03:28:59.214Z,99.90
2018-04-12T03:31:25.361Z,99.90
2018-04-12T03:33:52.249Z,99.90
2018-04-12T03:36:18.489Z,99.90
2018-04-12T03:38:44.637Z,99.90
2018-04-12T03:41:10.832Z,99.90
2018-04-12T03:43:37.042Z,99.90
2018-04-12T03:46:03.275Z,99.90
2018-04-12T03:48:29.416Z,99.90
2018-04-12T03:50:55.548Z,99.90
2018-04-12T03:53:21.758Z,99.90
2018-04-12T03:55:47.937Z,99.90
2018-04-12T03:58:14.137Z,99.90
2018-04-12T04:00:40.370Z,99.90
2018-04-12T04:03:06.575Z,99.90
2018-04-12T04:05:32.787Z,99.90
2018-04-12T04:07:59.006Z,99.90
2018-04-12T04:10:25.933Z,99.90
2018-04-12T04:12:52.085Z,99.90
2018-04-12T04:15:30.511Z,99.90
2018-04-12T04:18:09.760Z,99.90
2018-04-12T04:20:48.273Z,99.90
2018-04-12T04:23:15.126Z,99.90
2018-04-12T04:25:41.348Z,99.90
2018-04-12T04:28:07.521Z,99.90
2018-04-12T04:30:33.691Z,99.90
2018-04-12T04:32:59.897Z,99.90
2018-04-12T04:35:26.820Z,99.90
2018-04-12T04:37:53.000Z,99.90
2018-04-12T04:40:19.162Z,99.90
2018-04-12T04:43:03.392Z,99.90
2018-04-12T04:45:29.698Z,99.90
2018-04-12T04:47:55.888Z,99.90
2018-04-12T04:50:22.898Z,99.90
2018-04-12T04:52:49.125Z,99.90
2018-04-12T04:55:15.341Z,99.90
2018-04-12T04:57:41.595Z,99.90
2018-04-12T05:00:07.813Z,99.90
2018-04-12T05:02:36.363Z,99.90
2018-04-12T05:05:02.691Z,99.90
2018-04-12T05:07:28.852Z,99.90
2018-04-12T05:09:55.134Z,99.90
2018-04-12T05:12:48.935Z,99.90
2018-04-12T05:15:15.127Z,99.90
2018-04-12T05:17:42.091Z,99.90
2018-04-12T05:20:08.304Z,99.90
2018-04-12T05:22:35.254Z,99.90
2018-04-12T05:25:02.135Z,99.90
2018-04-12T05:27:28.363Z,99.90
2018-04-12T05:29:54.553Z,99.90
2018-04-12T05:32:20.767Z,99.90
2018-04-12T05:34:46.937Z,99.90
2018-04-12T05:37:13.129Z,99.90
2018-04-12T05:39:40.118Z,99.90
2018-04-12T05:42:06.341Z,99.90
2018-04-12T05:46:44.707Z,99.90
2018-04-12T05:49:10.913Z,99.90
2018-04-12T05:51:37.049Z,99.90
2018-04-12T05:54:03.282Z,99.90
2018-04-12T05:56:29.485Z,99.90
2018-04-12T05:58:55.734Z,99.90
2018-04-12T06:01:21.870Z,99.90
2018-04-12T06:03:48.048Z,99.90
2018-04-12T06:06:14.214Z,99.90
2018-04-12T06:08:40.390Z,99.90
2018-04-12T06:11:06.548Z,99.90
2018-04-12T06:13:32.745Z,99.90
2018-04-12T06:15:58.935Z,99.90
2018-04-12T06:18:25.840Z,99.90
2018-04-12T06:20:52.069Z,99.90
2018-04-12T06:23:18.298Z,99.90
2018-04-12T06:25:44.541Z,99.90
2018-04-12T06:28:10.717Z,99.90
2018-04-12T06:30:37.697Z,99.90
2018-04-12T06:33:04.058Z,99.90
2018-04-12T06:35:30.271Z,99.90
2018-04-12T06:37:56.435Z,99.90
2018-04-12T06:40:24.251Z,99.90
2018-04-12T06:42:51.887Z,99.90
2018-04-12T06:45:18.119Z,99.90
2018-04-12T06:47:45.106Z,99.90
2018-04-12T06:50:11.409Z,99.90
2018-04-12T06:52:37.603Z,99.90
2018-04-12T06:55:04.581Z,99.90
2018-04-12T06:57:30.858Z,99.90
2018-04-12T06:59:57.078Z,99.90
2018-04-12T07:02:23.301Z,99.90
2018-04-12T07:04:49.464Z,99.90
2018-04-12T07:07:16.422Z,99.90
2018-04-12T07:09:42.579Z,99.90
2018-04-12T07:12:08.723Z,99.90
2018-04-12T07:14:34.952Z,99.90
2018-04-12T07:17:01.074Z,99.90
2018-04-12T07:19:27.216Z,99.90
2018-04-12T07:21:53.343Z,99.90
2018-04-12T07:24:19.617Z,99.90
2018-04-12T07:26:45.741Z,99.90
2018-04-12T07:29:12.725Z,99.90
2018-04-12T07:31:38.929Z,99.90
2018-04-12T07:34:05.136Z,99.90
2018-04-12T07:36:32.104Z,99.90
2018-04-12T07:38:58.260Z,99.90
2018-04-12T07:41:24.525Z,99.90
2018-04-12T07:43:51.489Z,99.90
2018-04-12T07:46:17.652Z,99.90
2018-04-12T07:48:43.815Z,99.90
2018-04-12T07:51:09.961Z,99.90
2018-04-12T07:53:36.905Z,99.90
2018-04-12T07:56:03.873Z,99.90
2018-04-12T07:58:30.074Z,99.90
2018-04-12T08:00:57.058Z,99.90
2018-04-12T08:03:23.261Z,99.90
2018-04-12T08:05:49.449Z,99.90
2018-04-12T08:08:15.615Z,99.90
2018-04-12T08:10:41.837Z,99.90
2018-04-12T08:13:08.013Z,99.90
2018-04-12T08:15:34.214Z,99.90
2018-04-12T08:18:00.366Z,99.90
2018-04-12T08:20:26.544Z,99.90
2018-04-12T08:22:53.500Z,99.90
2018-04-12T08:25:19.718Z,99.90
2018-04-12T08:27:46.667Z,99.90
2018-04-12T08:30:13.526Z,99.90
2018-04-12T08:32:39.721Z,99.90
2018-04-12T08:35:06.619Z,99.90
2018-04-12T08:37:32.800Z,99.90
2018-04-12T08:39:59.727Z,99.90
2018-04-12T08:42:25.931Z,99.90
2018-04-12T08:44:52.123Z,99.90
2018-04-12T08:47:18.309Z,99.90
2018-04-12T08:49:44.545Z,99.90
2018-04-12T08:52:11.418Z,99.90
2018-04-12T08:54:37.629Z,99.90
2018-04-12T08:57:04.572Z,99.90
2018-04-12T08:59:31.470Z,99.90
2018-04-12T09:01:57.693Z,99.90
2018-04-12T09:04:23.842Z,99.90
2018-04-12T09:06:49.983Z,99.90
2018-04-12T09:09:16.157Z,99.90
2018-04-12T09:11:42.345Z,99.90
2018-04-12T09:14:09.265Z,99.90
2018-04-12T09:16:35.460Z,99.90
2018-04-12T09:19:01.597Z,99.90
2018-04-12T09:21:27.861Z,99.90
2018-04-12T09:23:53.981Z,99.90
2018-04-12T09:26:20.169Z,99.90
2018-04-12T09:28:46.390Z,99.90
2018-04-12T09:31:12.574Z,99.90
2018-04-12T09:33:39.456Z,99.90
2018-04-12T09:36:05.626Z,99.90
2018-04-12T09:38:31.781Z,99.90
2018-04-12T09:40:58.772Z,99.90
2018-04-12T09:43:24.966Z,99.90
2018-04-12T09:45:51.867Z,99.90
2018-04-12T09:48:18.004Z,99.90
2018-04-12T09:50:44.163Z,99.90
2018-04-12T09:53:11.138Z,99.90
2018-04-12T09:55:37.328Z,99.90
2018-04-12T09:58:04.312Z,99.90
2018-04-12T10:00:30.530Z,99.90
2018-04-12T10:02:56.765Z,99.90
2018-04-12T10:05:29.068Z,99.60
2018-04-12T10:08:01.305Z,99.80
2018-04-12T10:10:27.524Z,93.70
2018-04-12T10:12:53.686Z,93.90
2018-04-12T10:15:19.865Z,91.20
2018-04-12T10:17:45.995Z,90.40
2018-04-12T10:20:12.202Z,92.70
2018-04-12T10:22:39.189Z,90.20
2018-04-12T10:25:05.390Z,90.10
2018-04-12T10:27:31.600Z,86.30
2018-04-12T10:29:58.556Z,85.80
2018-04-12T10:32:25.506Z,85.70
2018-04-12T10:34:52.446Z,85.80
2018-04-12T10:37:19.353Z,85.90
2018-04-12T10:39:45.598Z,86.00
2018-04-12T10:42:12.550Z,87.80
2018-04-12T10:44:38.761Z,87.30
2018-04-12T10:47:05.033Z,84.40
2018-04-12T10:49:31.160Z,86.40
2018-04-12T10:51:57.336Z,83.90
2018-04-12T10:54:23.496Z,84.10
2018-04-12T10:56:50.502Z,83.80
2018-04-12T10:59:16.716Z,83.80
2018-04-12T11:01:42.993Z,85.30
2018-04-12T11:04:09.959Z,84.90
2018-04-12T11:06:36.185Z,84.80
2018-04-12T11:09:02.394Z,85.50
2018-04-12T11:11:29.357Z,88.10
2018-04-12T11:13:55.548Z,87.20
2018-04-12T11:16:21.765Z,96.30
2018-04-12T11:18:48.017Z,90.00
2018-04-12T11:21:14.914Z,83.10
2018-04-12T11:23:41.361Z,83.00
2018-04-12T11:26:07.552Z,89.00
2018-04-12T11:28:33.788Z,84.20
2018-04-12T11:31:00.014Z,81.10
2018-04-12T11:33:26.230Z,83.10
2018-04-12T11:35:53.195Z,82.90
2018-04-12T11:38:19.376Z,83.70
2018-04-12T11:40:45.513Z,80.60
2018-04-12T11:43:12.468Z,78.20
2018-04-12T11:45:39.399Z,76.60
2018-04-12T11:48:05.581Z,76.60
2018-04-12T11:50:31.820Z,79.60
2018-04-12T11:52:58.047Z,76.10
2018-04-12T11:55:24.212Z,78.90
2018-04-12T11:57:51.143Z,78.60
2018-04-12T12:00:17.397Z,77.90
2018-04-12T12:02:44.253Z,81.00
2018-04-12T12:05:10.521Z,81.00
2018-04-12T12:07:36.728Z,80.90
2018-04-12T12:10:02.964Z,79.30
2018-04-12T12:12:29.185Z,81.30
2018-04-12T12:14:55.327Z,77.10
2018-04-12T12:17:21.485Z,77.50
2018-04-12T12:19:47.705Z,77.50
2018-04-12T12:22:13.903Z,81.10
2018-04-12T12:24:40.142Z,75.10
2018-04-12T12:27:06.318Z,74.20
2018-04-12T12:29:33.222Z,73.40
2018-04-12T12:31:59.375Z,73.60
2018-04-12T12:34:25.549Z,78.10
2018-04-12T12:36:51.746Z,74.60
2018-04-12T12:39:18.657Z,72.40
2018-04-12T12:41:45.585Z,71.40
2018-04-12T12:44:11.779Z,71.30
2018-04-12T12:46:37.953Z,71.70
2018-04-12T12:49:04.189Z,70.80
2018-04-12T12:51:30.352Z,70.90
2018-04-12T12:54:02.539Z,70.80
2018-04-12T12:56:28.686Z,71.20
2018-04-12T12:58:54.896Z,70.50
2018-04-12T13:01:21.104Z,69.50
2018-04-12T13:03:47.241Z,68.30
2018-04-12T13:06:13.423Z,70.90
2018-04-12T13:08:46.413Z,75.20
2018-04-12T13:11:12.691Z,75.80
2018-04-12T13:13:38.878Z,73.20
2018-04-12T13:16:06.029Z,81.50
2018-04-12T13:18:33.001Z,73.70
2018-04-12T13:20:59.253Z,73.60
2018-04-12T13:23:31.476Z,71.70
2018-04-12T13:25:58.421Z,70.20
2018-04-12T13:28:25.355Z,71.40
2018-04-12T13:30:57.626Z,71.20
2018-04-12T13:33:24.563Z,72.90
2018-04-12T13:35:50.725Z,71.00
2018-04-12T13:38:29.915Z,74.50
2018-04-12T13:40:56.087Z,74.30
2018-04-12T13:43:22.312Z,76.80
2018-04-12T13:45:48.507Z,77.20
2018-04-12T13:48:20.793Z,81.10
2018-04-12T13:50:47.740Z,79.30
2018-04-12T13:53:14.664Z,78.80
2018-04-12T13:55:40.886Z,78.80
2018-04-12T13:58:13.052Z,79.10
2018-04-12T14:00:39.297Z,78.80
2018-04-12T14:03:06.226Z,83.60
2018-04-12T14:05:32.421Z,83.10
2018-04-12T14:08:04.574Z,82.00
2018-04-12T14:10:30.797Z,80.30
2018-04-12T14:13:09.400Z,81.90
2018-04-12T14:15:42.482Z,86.90
2018-04-12T14:18:09.450Z,85.70
2018-04-12T14:20:41.941Z,85.70
2018-04-12T14:23:08.122Z,85.00
2018-04-12T14:25:34.313Z,82.50
2018-04-12T14:28:06.712Z,81.10
2018-04-12T14:30:39.130Z,81.20
2018-04-12T14:33:11.253Z,82.40
2018-04-12T14:35:43.570Z,82.70
2018-04-12T14:38:15.840Z,82.20
2018-04-12T14:40:42.045Z,82.40
2018-04-12T14:43:09.037Z,84.20
2018-04-12T14:45:41.249Z,84.20
2018-04-12T14:48:14.222Z,81.90
2018-04-12T14:50:40.374Z,81.30
2018-04-12T14:53:07.362Z,85.20
2018-04-12T14:55:39.649Z,85.20
2018-04-12T14:58:05.892Z,86.00
2018-04-12T15:00:32.843Z,88.70
2018-04-12T15:02:59.808Z,83.10
2018-04-12T15:05:32.889Z,84.80
2018-04-12T15:08:05.957Z,86.30
2018-04-12T15:10:32.162Z,86.30
2018-04-12T15:13:10.729Z,86.80
2018-04-12T15:15:37.722Z,92.60
2018-04-12T15:18:09.992Z,92.60
2018-04-12T15:20:42.224Z,93.40
2018-04-12T15:23:08.407Z,94.40
2018-04-12T15:25:34.600Z,94.70
2018-04-12T15:28:00.876Z,93.50
2018-04-12T15:30:33.338Z,94.90
2018-04-12T15:33:05.500Z,94.80
2018-04-12T15:35:31.690Z,93.80
2018-04-12T15:37:57.924Z,92.70
2018-04-12T15:40:24.085Z,88.90
2018-04-12T15:42:50.299Z,89.40
2018-04-12T15:45:22.635Z,87.80
2018-04-12T15:47:49.504Z,90.40
2018-04-12T15:50:21.858Z,90.40
2018-04-12T15:52:48.093Z,90.30
2018-04-12T15:55:14.353Z,91.80
2018-04-12T15:57:46.710Z,91.10
2018-04-12T16:00:12.840Z,91.60
2018-04-12T16:02:44.986Z,89.70
2018-04-12T16:05:11.193Z,89.80
2018-04-12T16:07:38.136Z,88.80
2018-04-12T16:10:05.076Z,90.20
2018-04-12T16:12:32.032Z,90.90
2018-04-12T16:14:58.887Z,91.30
2018-04-12T16:17:25.078Z,91.20
2018-04-12T16:19:51.205Z,91.20
2018-04-12T16:22:23.433Z,91.80
2018-04-12T16:24:49.650Z,92.80
2018-04-12T16:27:15.807Z,92.80
2018-04-12T16:29:48.135Z,93.80
2018-04-12T16:32:20.416Z,93.40
2018-04-12T16:34:52.645Z,93.40
2018-04-12T16:37:18.849Z,93.70
2018-04-12T16:39:45.008Z,94.10
2018-04-12T16:42:11.992Z,94.10
2018-04-12T16:44:38.212Z,94.10
2018-04-12T16:47:04.467Z,93.70
2018-04-12T16:49:36.866Z,94.50
2018-04-12T16:52:03.041Z,93.10
2018-04-12T16:54:29.300Z,95.10
2018-04-12T16:56:55.524Z,95.10
2018-04-12T16:59:27.846Z,95.40
2018-04-12T17:01:54.103Z,96.80
2018-04-12T17:04:20.330Z,96.40
2018-04-12T17:06:46.543Z,96.60
2018-04-12T17:09:12.780Z,97.40
2018-04-12T17:11:39.070Z,99.30
2018-04-12T17:14:05.375Z,99.90
2018-04-12T17:16:31.693Z,99.90
2018-04-12T17:19:04.011Z,99.90
2018-04-12T17:21:30.951Z,99.90
2018-04-12T17:23:57.835Z,99.90
2018-04-12T17:26:30.260Z,99.90
2018-04-12T17:28:56.473Z,99.90
2018-04-12T17:31:28.819Z,99.90
2018-04-12T17:34:07.522Z,99.40
2018-04-12T17:36:33.781Z,98.70
2018-04-12T17:39:00.007Z,99.00
2018-04-12T17:41:26.204Z,98.80
2018-04-12T17:43:58.597Z,99.10
2018-04-12T17:46:30.780Z,99.10
2018-04-12T17:49:09.352Z,99.90
2018-04-12T17:51:36.255Z,99.60
2018-04-12T17:54:02.414Z,99.60
2018-04-12T17:56:29.429Z,99.90
2018-04-12T17:59:01.672Z,99.90
2018-04-12T18:01:27.938Z,99.90
2018-04-12T18:04:00.119Z,99.90
2018-04-12T18:06:33.190Z,99.90
2018-04-12T18:08:59.478Z,99.90
2018-04-12T18:11:31.692Z,99.90
2018-04-12T18:13:57.917Z,99.90
2018-04-12T18:16:24.127Z,99.90
2018-04-12T18:18:50.296Z,99.90
2018-04-12T18:21:23.355Z,99.90
2018-04-12T18:23:49.564Z,99.90
2018-04-12T18:26:21.889Z,99.90
2018-04-12T18:28:48.047Z,99.90
2018-04-12T18:31:14.254Z,99.90
2018-04-12T18:33:46.720Z,99.90
2018-04-12T18:36:12.952Z,99.90
2018-04-12T18:38:39.857Z,99.90
2018-04-12T18:41:12.032Z,99.90
2018-04-12T18:43:38.965Z,99.90
2018-04-12T18:46:05.172Z,99.90
2018-04-12T18:48:31.389Z,99.90
2018-04-12T18:50:57.532Z,99.90
2018-04-12T18:53:23.809Z,99.90
2018-04-12T18:55:59.896Z,99.90
2018-04-12T18:58:26.118Z,99.90
2018-04-12T19:01:04.689Z,99.90
2018-04-12T19:03:30.862Z,99.90
2018-04-12T19:06:03.128Z,99.90
2018-04-12T19:08:29.340Z,99.90
2018-04-12T19:10:56.334Z,99.90
2018-04-12T19:13:22.532Z,99.90
2018-04-12T19:15:48.837Z,99.90
2018-04-12T19:18:15.042Z,99.90
2018-04-12T19:20:41.191Z,99.90
2018-04-12T19:23:07.529Z,99.90
2018-04-12T19:25:33.721Z,99.90
2018-04-12T19:28:00.091Z,99.90
2018-04-12T19:30:32.999Z,99.90
2018-04-12T19:33:05.356Z,99.90
2018-04-12T19:35:32.324Z,99.90
2018-04-12T19:37:58.576Z,99.90
2018-04-12T19:40:30.761Z,99.90
2018-04-12T19:43:03.055Z,99.90
2018-04-12T19:45:29.989Z,99.90
2018-04-12T19:47:56.138Z,99.90
2018-04-12T19:50:23.046Z,99.90
2018-04-12T19:52:55.169Z,99.90
2018-04-12T19:55:21.398Z,99.90
2018-04-12T19:57:53.810Z,99.90
2018-04-12T20:00:20.053Z,99.90
2018-04-12T20:02:46.247Z,99.90
2018-04-12T20:05:12.492Z,99.90
2018-04-12T20:07:38.786Z,99.90
2018-04-12T20:10:05.034Z,99.90
2018-04-12T20:12:31.199Z,99.90
2018-04-12T20:14:57.396Z,99.90
2018-04-12T20:17:23.688Z,99.90
2018-04-12T20:19:56.106Z,99.90
2018-04-12T20:22:22.331Z,99.90
2018-04-12T20:24:48.520Z,99.90
2018-04-12T20:27:14.656Z,99.90
2018-04-12T20:29:40.863Z,99.90
2018-04-12T20:32:07.096Z,99.90
2018-04-12T20:34:39.377Z,99.90
2018-04-12T20:37:05.615Z,99.90
2018-04-12T20:39:31.872Z,99.90
2018-04-12T20:41:58.108Z,99.90
2018-04-12T20:44:24.286Z,99.90
2018-04-12T20:46:56.535Z,99.90
2018-04-12T20:49:29.648Z,99.90
2018-04-12T20:52:08.126Z,99.90
2018-04-12T20:54:35.055Z,99.90
2018-04-12T20:57:07.471Z,99.90
2018-04-12T20:59:33.684Z,99.90
2018-04-12T21:02:00.718Z,99.90
2018-04-12T21:04:28.372Z,99.90
2018-04-12T21:06:54.541Z,99.90
2018-04-12T21:09:20.764Z,99.90
2018-04-12T21:11:46.977Z,99.90
2018-04-12T21:14:13.930Z,99.90
2018-04-12T21:16:47.020Z,99.90
2018-04-12T21:19:13.254Z,99.90
2018-04-12T21:21:39.438Z,99.90
2018-04-12T21:24:05.689Z,99.90
2018-04-12T21:26:44.149Z,99.90
2018-04-12T21:29:10.405Z,99.90
2018-04-12T21:31:36.551Z,99.90
2018-04-12T21:34:08.790Z,99.90
2018-04-12T21:36:34.959Z,99.90
2018-04-12T21:39:01.938Z,99.90
2018-04-12T21:41:34.272Z,99.90
2018-04-12T21:44:01.209Z,99.90
2018-04-12T21:46:27.430Z,99.90
2018-04-12T21:48:53.579Z,99.90
2018-04-12T21:51:20.589Z,99.90
2018-04-12T21:53:46.780Z,99.90
2018-04-12T21:56:12.916Z,99.90
2018-04-12T21:58:39.076Z,99.90
2018-04-12T22:01:11.482Z,99.90
2018-04-12T22:03:38.488Z,99.90
2018-04-12T22:06:04.666Z,99.90
2018-04-12T22:08:31.624Z,99.90
2018-04-12T22:11:03.844Z,99.90
2018-04-12T22:13:30.021Z,99.90
2018-04-12T22:15:56.239Z,99.90
2018-04-12T22:18:29.400Z,99.90
2018-04-12T22:20:55.613Z,99.90
2018-04-12T22:23:21.769Z,99.90
2018-04-12T22:25:48.709Z,99.90
2018-04-12T22:28:15.645Z,99.90
2018-04-12T22:30:41.817Z,99.90
2018-04-12T22:33:08.008Z,99.90
2018-04-12T22:35:34.926Z,99.90
2018-04-12T22:38:01.110Z,99.90
2018-04-12T22:40:39.747Z,99.90
2018-04-12T22:43:12.018Z,99.90
2018-04-12T22:45:38.257Z,99.90
2018-04-12T22:48:04.439Z,99.90
2018-04-12T22:50:31.362Z,99.90
2018-04-12T22:53:03.617Z,99.90
2018-04-12T22:55:35.854Z,99.90
2018-04-12T22:58:08.185Z,99.90
2018-04-12T23:00:35.113Z,99.90
2018-04-12T23:03:07.422Z,99.90
2018-04-12T23:05:33.632Z,99.90
2018-04-12T23:08:00.597Z,99.90
2018-04-12T23:10:32.806Z,99.90
2018-04-12T23:12:59.025Z,99.90
2018-04-12T23:15:25.260Z,99.90
2018-04-12T23:17:51.429Z,99.90
2018-04-12T23:20:24.484Z,99.90
2018-04-12T23:22:50.656Z,99.90
2018-04-12T23:25:16.785Z,99.90
2018-04-12T23:27:42.951Z,99.90
2018-04-12T23:30:09.181Z,99.90
2018-04-12T23:32:35.339Z,99.90
2018-04-12T23:35:01.621Z,99.90
2018-04-12T23:37:33.869Z,99.90
2018-04-12T23:40:00.072Z,99.90
2018-04-12T23:42:33.237Z,99.90
2018-04-12T23:44:59.453Z,99.90
2018-04-12T23:47:25.655Z,99.90
2018-04-12T23:49:57.920Z,99.90
2018-04-12T23:52:24.098Z,99.90
2018-04-12T23:54:50.340Z,99.90
2018-04-12T23:57:17.256Z,99.90
2018-04-12T23:59:49.669Z,99.90
